sensor_id;sensor_type;location;lat;lon;timestamp;P1;durP1;ratioP1;P2;durP2;ratioP2
34695;SDS011;20918;51.138;17.370;2022-08-24T00:00:32;67.87;;;37.28;;
34695;SDS011;20918;51.138;17.370;2022-08-24T00:03:34;68.80;;;38.88;;
34695;SDS011;20918;51.138;17.370;2022-08-24T00:06:38;66.42;;;36.15;;
34695;SDS011;20918;51.138;17.370;2022-08-24T00:09:39;67.20;;;39.05;;
34695;SDS011;20918;51.138;17.370;2022-08-24T00:12:41;67.58;;;37.65;;
34695;SDS011;20918;51.138;17.370;2022-08-24T00:15:43;83.70;;;38.67;;
34695;SDS011;20918;51.138;17.370;2022-08-24T00:18:45;71.53;;;38.58;;
34695;SDS011;20918;51.138;17.370;2022-08-24T00:21:47;86.80;;;40.12;;
34695;SDS011;20918;51.138;17.370;2022-08-24T00:24:49;73.30;;;39.90;;
34695;SDS011;20918;51.138;17.370;2022-08-24T00:27:50;71.95;;;39.45;;
34695;SDS011;20918;51.138;17.370;2022-08-24T00:30:52;79.50;;;39.30;;
34695;SDS011;20918;51.138;17.370;2022-08-24T00:33:53;87.97;;;43.13;;
34695;SDS011;20918;51.138;17.370;2022-08-24T00:36:55;81.75;;;40.35;;
34695;SDS011;20918;51.138;17.370;2022-08-24T00:39:57;74.05;;;39.42;;
34695;SDS011;20918;51.138;17.370;2022-08-24T00:42:58;73.12;;;39.30;;
34695;SDS011;20918;51.138;17.370;2022-08-24T00:49:52;77.82;;;40.40;;
34695;SDS011;20918;51.138;17.370;2022-08-24T00:52:55;78.15;;;39.35;;
34695;SDS011;20918;51.138;17.370;2022-08-24T00:56:03;63.83;;;38.60;;
34695;SDS011;20918;51.138;17.370;2022-08-24T00:59:13;78.07;;;37.38;;
34695;SDS011;20918;51.138;17.370;2022-08-24T01:02:25;62.70;;;38.30;;
34695;SDS011;20918;51.138;17.370;2022-08-24T01:05:31;100.33;;;39.67;;
34695;SDS011;20918;51.138;17.370;2022-08-24T01:08:34;56.68;;;36.88;;
34695;SDS011;20918;51.138;17.370;2022-08-24T01:11:36;67.62;;;38.67;;
34695;SDS011;20918;51.138;17.370;2022-08-24T01:14:37;110.70;;;39.92;;
34695;SDS011;20918;51.138;17.370;2022-08-24T01:17:38;55.80;;;37.45;;
34695;SDS011;20918;51.138;17.370;2022-08-24T01:21:00;59.60;;;38.83;;
34695;SDS011;20918;51.138;17.370;2022-08-24T01:24:22;61.75;;;39.40;;
34695;SDS011;20918;51.138;17.370;2022-08-24T01:27:24;60.98;;;36.28;;
34695;SDS011;20918;51.138;17.370;2022-08-24T01:30:26;69.80;;;39.55;;
34695;SDS011;20918;51.138;17.370;2022-08-24T01:33:29;71.45;;;40.90;;
34695;SDS011;20918;51.138;17.370;2022-08-24T01:36:35;72.03;;;40.12;;
34695;SDS011;20918;51.138;17.370;2022-08-24T01:39:56;77.10;;;42.25;;
34695;SDS011;20918;51.138;17.370;2022-08-24T01:43:03;73.80;;;40.23;;
34695;SDS011;20918;51.138;17.370;2022-08-24T01:46:06;74.82;;;40.50;;
34695;SDS011;20918;51.138;17.370;2022-08-24T01:49:07;77.72;;;41.13;;
34695;SDS011;20918;51.138;17.370;2022-08-24T01:52:12;67.95;;;40.70;;
34695;SDS011;20918;51.138;17.370;2022-08-24T01:55:16;85.30;;;41.37;;
34695;SDS011;20918;51.138;17.370;2022-08-24T01:58:18;72.62;;;42.27;;
34695;SDS011;20918;51.138;17.370;2022-08-24T02:01:19;70.45;;;41.15;;
34695;SDS011;20918;51.138;17.370;2022-08-24T02:04:21;90.77;;;44.25;;
34695;SDS011;20918;51.138;17.370;2022-08-24T02:07:23;84.28;;;43.52;;
34695;SDS011;20918;51.138;17.370;2022-08-24T02:10:25;72.32;;;41.23;;
34695;SDS011;20918;51.138;17.370;2022-08-24T02:13:28;80.65;;;43.23;;
34695;SDS011;20918;51.138;17.370;2022-08-24T02:16:30;96.85;;;45.20;;
34695;SDS011;20918;51.138;17.370;2022-08-24T02:19:31;81.97;;;43.15;;
34695;SDS011;20918;51.138;17.370;2022-08-24T02:22:33;77.10;;;42.67;;
34695;SDS011;20918;51.138;17.370;2022-08-24T02:25:34;75.87;;;43.98;;
34695;SDS011;20918;51.138;17.370;2022-08-24T02:28:35;75.55;;;42.80;;
34695;SDS011;20918;51.138;17.370;2022-08-24T02:31:38;71.37;;;42.53;;
34695;SDS011;20918;51.138;17.370;2022-08-24T02:34:39;86.82;;;43.50;;
34695;SDS011;20918;51.138;17.370;2022-08-24T02:37:41;72.37;;;41.00;;
34695;SDS011;20918;51.138;17.370;2022-08-24T02:40:43;67.30;;;41.95;;
34695;SDS011;20918;51.138;17.370;2022-08-24T02:43:45;62.55;;;40.95;;
34695;SDS011;20918;51.138;17.370;2022-08-24T02:46:46;67.50;;;41.60;;
34695;SDS011;20918;51.138;17.370;2022-08-24T02:49:47;69.92;;;42.60;;
34695;SDS011;20918;51.138;17.370;2022-08-24T02:52:48;64.75;;;40.85;;
34695;SDS011;20918;51.138;17.370;2022-08-24T02:55:50;73.95;;;41.28;;
34695;SDS011;20918;51.138;17.370;2022-08-24T02:58:51;62.93;;;40.12;;
34695;SDS011;20918;51.138;17.370;2022-08-24T03:01:53;72.45;;;41.83;;
34695;SDS011;20918;51.138;17.370;2022-08-24T03:05:04;58.98;;;40.40;;
34695;SDS011;20918;51.138;17.370;2022-08-24T03:08:08;59.50;;;39.38;;
34695;SDS011;20918;51.138;17.370;2022-08-24T03:11:09;64.95;;;40.95;;
34695;SDS011;20918;51.138;17.370;2022-08-24T03:14:11;55.60;;;39.53;;
34695;SDS011;20918;51.138;17.370;2022-08-24T03:17:13;63.00;;;39.55;;
34695;SDS011;20918;51.138;17.370;2022-08-24T03:20:19;55.75;;;38.73;;
34695;SDS011;20918;51.138;17.370;2022-08-24T03:23:23;62.90;;;37.95;;
34695;SDS011;20918;51.138;17.370;2022-08-24T03:26:27;56.40;;;37.60;;
34695;SDS011;20918;51.138;17.370;2022-08-24T03:29:28;57.38;;;38.25;;
34695;SDS011;20918;51.138;17.370;2022-08-24T03:32:32;57.45;;;36.58;;
34695;SDS011;20918;51.138;17.370;2022-08-24T03:35:34;55.10;;;38.10;;
34695;SDS011;20918;51.138;17.370;2022-08-24T03:38:35;64.62;;;39.15;;
34695;SDS011;20918;51.138;17.370;2022-08-24T03:41:37;61.63;;;38.85;;
34695;SDS011;20918;51.138;17.370;2022-08-24T03:44:40;65.10;;;38.80;;
34695;SDS011;20918;51.138;17.370;2022-08-24T03:47:43;56.28;;;38.80;;
34695;SDS011;20918;51.138;17.370;2022-08-24T03:50:45;49.73;;;35.63;;
34695;SDS011;20918;51.138;17.370;2022-08-24T03:53:47;53.87;;;36.25;;
34695;SDS011;20918;51.138;17.370;2022-08-24T03:56:49;55.70;;;38.02;;
34695;SDS011;20918;51.138;17.370;2022-08-24T03:59:54;55.75;;;36.30;;
34695;SDS011;20918;51.138;17.370;2022-08-24T04:02:55;62.75;;;35.90;;
34695;SDS011;20918;51.138;17.370;2022-08-24T04:05:57;57.23;;;38.10;;
34695;SDS011;20918;51.138;17.370;2022-08-24T04:08:59;63.02;;;39.18;;
34695;SDS011;20918;51.138;17.370;2022-08-24T04:12:03;64.35;;;38.98;;
34695;SDS011;20918;51.138;17.370;2022-08-24T04:15:07;57.30;;;37.95;;
34695;SDS011;20918;51.138;17.370;2022-08-24T04:18:11;58.42;;;36.73;;
34695;SDS011;20918;51.138;17.370;2022-08-24T04:21:19;55.00;;;35.55;;
34695;SDS011;20918;51.138;17.370;2022-08-24T04:24:30;51.77;;;35.58;;
34695;SDS011;20918;51.138;17.370;2022-08-24T04:27:33;52.13;;;36.00;;
34695;SDS011;20918;51.138;17.370;2022-08-24T04:30:37;50.30;;;36.05;;
34695;SDS011;20918;51.138;17.370;2022-08-24T04:33:44;53.08;;;34.98;;
34695;SDS011;20918;51.138;17.370;2022-08-24T04:36:55;49.58;;;34.35;;
34695;SDS011;20918;51.138;17.370;2022-08-24T04:39:56;47.58;;;33.83;;
34695;SDS011;20918;51.138;17.370;2022-08-24T04:43:02;45.55;;;32.60;;
34695;SDS011;20918;51.138;17.370;2022-08-24T04:46:07;49.00;;;34.25;;
34695;SDS011;20918;51.138;17.370;2022-08-24T04:49:16;53.48;;;32.45;;
34695;SDS011;20918;51.138;17.370;2022-08-24T04:52:25;40.95;;;31.05;;
34695;SDS011;20918;51.138;17.370;2022-08-24T04:55:44;41.63;;;31.40;;
34695;SDS011;20918;51.138;17.370;2022-08-24T04:58:54;42.67;;;31.30;;
34695;SDS011;20918;51.138;17.370;2022-08-24T05:02:05;42.53;;;30.85;;
34695;SDS011;20918;51.138;17.370;2022-08-24T05:05:08;40.48;;;30.48;;
34695;SDS011;20918;51.138;17.370;2022-08-24T05:08:14;42.20;;;31.40;;
34695;SDS011;20918;51.138;17.370;2022-08-24T05:11:18;39.35;;;30.82;;
34695;SDS011;20918;51.138;17.370;2022-08-24T05:14:30;38.23;;;30.55;;
34695;SDS011;20918;51.138;17.370;2022-08-24T05:17:34;46.50;;;32.53;;
34695;SDS011;20918;51.138;17.370;2022-08-24T05:20:54;41.53;;;30.15;;
34695;SDS011;20918;51.138;17.370;2022-08-24T05:23:56;41.90;;;30.52;;
34695;SDS011;20918;51.138;17.370;2022-08-24T05:27:08;44.75;;;30.32;;
34695;SDS011;20918;51.138;17.370;2022-08-24T05:30:09;44.03;;;31.57;;
34695;SDS011;20918;51.138;17.370;2022-08-24T05:33:15;41.45;;;31.05;;
34695;SDS011;20918;51.138;17.370;2022-08-24T05:36:31;42.20;;;31.00;;
34695;SDS011;20918;51.138;17.370;2022-08-24T05:39:31;45.23;;;31.50;;
34695;SDS011;20918;51.138;17.370;2022-08-24T05:42:35;42.03;;;30.60;;
34695;SDS011;20918;51.138;17.370;2022-08-24T05:45:39;39.10;;;29.85;;
34695;SDS011;20918;51.138;17.370;2022-08-24T05:48:44;41.20;;;30.50;;
34695;SDS011;20918;51.138;17.370;2022-08-24T05:51:47;39.85;;;30.30;;
34695;SDS011;20918;51.138;17.370;2022-08-24T05:54:50;37.65;;;29.00;;
34695;SDS011;20918;51.138;17.370;2022-08-24T05:57:54;36.28;;;28.62;;
34695;SDS011;20918;51.138;17.370;2022-08-24T06:01:13;39.92;;;28.75;;
34695;SDS011;20918;51.138;17.370;2022-08-24T06:04:21;36.90;;;27.82;;
34695;SDS011;20918;51.138;17.370;2022-08-24T06:07:22;37.13;;;27.93;;
34695;SDS011;20918;51.138;17.370;2022-08-24T06:10:25;37.73;;;28.17;;
34695;SDS011;20918;51.138;17.370;2022-08-24T06:13:27;33.00;;;25.70;;
34695;SDS011;20918;51.138;17.370;2022-08-24T06:16:54;30.43;;;25.10;;
34695;SDS011;20918;51.138;17.370;2022-08-24T06:19:57;33.48;;;25.20;;
34695;SDS011;20918;51.138;17.370;2022-08-24T06:22:58;33.67;;;24.82;;
34695;SDS011;20918;51.138;17.370;2022-08-24T06:26:02;30.12;;;24.07;;
34695;SDS011;20918;51.138;17.370;2022-08-24T06:29:32;32.13;;;23.02;;
34695;SDS011;20918;51.138;17.370;2022-08-24T06:32:36;27.30;;;21.70;;
34695;SDS011;20918;51.138;17.370;2022-08-24T06:35:38;23.52;;;20.92;;
34695;SDS011;20918;51.138;17.370;2022-08-24T06:38:41;22.65;;;18.45;;
34695;SDS011;20918;51.138;17.370;2022-08-24T06:41:44;20.00;;;17.80;;
34695;SDS011;20918;51.138;17.370;2022-08-24T06:45:06;17.92;;;16.10;;
34695;SDS011;20918;51.138;17.370;2022-08-24T06:48:22;17.17;;;15.40;;
34695;SDS011;20918;51.138;17.370;2022-08-24T06:51:32;15.72;;;13.32;;
34695;SDS011;20918;51.138;17.370;2022-08-24T06:54:34;17.35;;;14.35;;
34695;SDS011;20918;51.138;17.370;2022-08-24T06:57:36;13.45;;;12.07;;
34695;SDS011;20918;51.138;17.370;2022-08-24T07:00:38;12.73;;;10.38;;
34695;SDS011;20918;51.138;17.370;2022-08-24T07:03:51;10.82;;;9.58;;
34695;SDS011;20918;51.138;17.370;2022-08-24T07:06:55;9.68;;;8.30;;
34695;SDS011;20918;51.138;17.370;2022-08-24T07:10:02;10.05;;;8.65;;
34695;SDS011;20918;51.138;17.370;2022-08-24T07:13:10;13.00;;;9.35;;
34695;SDS011;20918;51.138;17.370;2022-08-24T07:16:26;9.10;;;8.20;;
34695;SDS011;20918;51.138;17.370;2022-08-24T07:19:26;9.95;;;8.65;;
34695;SDS011;20918;51.138;17.370;2022-08-24T07:22:27;10.70;;;8.63;;
34695;SDS011;20918;51.138;17.370;2022-08-24T07:25:31;10.00;;;9.00;;
34695;SDS011;20918;51.138;17.370;2022-08-24T07:28:36;13.88;;;8.50;;
34695;SDS011;20918;51.138;17.370;2022-08-24T07:31:49;11.12;;;9.05;;
34695;SDS011;20918;51.138;17.370;2022-08-24T07:34:55;8.73;;;7.92;;
34695;SDS011;20918;51.138;17.370;2022-08-24T07:37:57;8.68;;;7.85;;
34695;SDS011;20918;51.138;17.370;2022-08-24T07:40:59;10.53;;;8.83;;
34695;SDS011;20918;51.138;17.370;2022-08-24T07:44:04;11.10;;;8.43;;
34695;SDS011;20918;51.138;17.370;2022-08-24T07:47:06;9.50;;;8.63;;
34695;SDS011;20918;51.138;17.370;2022-08-24T07:50:08;10.78;;;9.28;;
34695;SDS011;20918;51.138;17.370;2022-08-24T07:53:23;10.30;;;9.30;;
34695;SDS011;20918;51.138;17.370;2022-08-24T07:56:28;12.80;;;9.53;;
34695;SDS011;20918;51.138;17.370;2022-08-24T07:59:33;10.08;;;9.08;;
34695;SDS011;20918;51.138;17.370;2022-08-24T08:02:40;10.13;;;9.15;;
34695;SDS011;20918;51.138;17.370;2022-08-24T08:05:46;13.20;;;10.13;;
34695;SDS011;20918;51.138;17.370;2022-08-24T08:08:49;11.28;;;9.58;;
34695;SDS011;20918;51.138;17.370;2022-08-24T08:11:51;12.80;;;11.50;;
34695;SDS011;20918;51.138;17.370;2022-08-24T08:14:55;11.73;;;10.08;;
34695;SDS011;20918;51.138;17.370;2022-08-24T08:17:57;12.03;;;10.82;;
34695;SDS011;20918;51.138;17.370;2022-08-24T08:21:00;13.98;;;10.70;;
34695;SDS011;20918;51.138;17.370;2022-08-24T08:24:09;13.10;;;10.60;;
34695;SDS011;20918;51.138;17.370;2022-08-24T08:27:19;14.00;;;12.60;;
34695;SDS011;20918;51.138;17.370;2022-08-24T08:30:28;16.65;;;13.88;;
34695;SDS011;20918;51.138;17.370;2022-08-24T08:33:29;16.57;;;13.50;;
34695;SDS011;20918;51.138;17.370;2022-08-24T08:36:32;15.45;;;13.70;;
34695;SDS011;20918;51.138;17.370;2022-08-24T08:39:45;15.72;;;14.13;;
34695;SDS011;20918;51.138;17.370;2022-08-24T08:42:55;18.30;;;15.18;;
34695;SDS011;20918;51.138;17.370;2022-08-24T08:46:40;16.85;;;15.05;;
34695;SDS011;20918;51.138;17.370;2022-08-24T08:57:11;20.30;;;16.32;;
34695;SDS011;20918;51.138;17.370;2022-08-24T09:08:27;19.62;;;13.83;;
34695;SDS011;20918;51.138;17.370;2022-08-24T09:19:02;14.55;;;13.05;;
34695;SDS011;20918;51.138;17.370;2022-08-24T09:22:25;14.73;;;12.70;;
34695;SDS011;20918;51.138;17.370;2022-08-24T09:25:35;15.03;;;12.80;;
34695;SDS011;20918;51.138;17.370;2022-08-24T09:35:59;15.68;;;13.28;;
34695;SDS011;20918;51.138;17.370;2022-08-24T09:46:27;15.83;;;12.18;;
34695;SDS011;20918;51.138;17.370;2022-08-24T09:50:15;12.98;;;11.53;;
34695;SDS011;20918;51.138;17.370;2022-08-24T09:57:39;18.20;;;13.10;;
34695;SDS011;20918;51.138;17.370;2022-08-24T10:05:12;18.12;;;12.70;;
34695;SDS011;20918;51.138;17.370;2022-08-24T10:12:21;16.75;;;14.00;;
34695;SDS011;20918;51.138;17.370;2022-08-24T10:33:46;14.23;;;10.82;;
34695;SDS011;20918;51.138;17.370;2022-08-24T10:55:24;16.82;;;12.07;;
34695;SDS011;20918;51.138;17.370;2022-08-24T10:58:47;21.07;;;11.65;;
34695;SDS011;20918;51.138;17.370;2022-08-24T11:05:40;12.78;;;11.35;;
34695;SDS011;20918;51.138;17.370;2022-08-24T11:08:59;15.00;;;11.60;;
34695;SDS011;20918;51.138;17.370;2022-08-24T11:15:48;16.37;;;12.13;;
34695;SDS011;20918;51.138;17.370;2022-08-24T11:19:07;15.08;;;12.00;;
34695;SDS011;20918;51.138;17.370;2022-08-24T11:22:55;14.80;;;12.98;;
34695;SDS011;20918;51.138;17.370;2022-08-24T11:26:20;16.23;;;12.45;;
34695;SDS011;20918;51.138;17.370;2022-08-24T11:29:27;17.98;;;12.37;;
34695;SDS011;20918;51.138;17.370;2022-08-24T11:36:31;18.75;;;13.60;;
34695;SDS011;20918;51.138;17.370;2022-08-24T11:39:34;22.55;;;13.60;;
34695;SDS011;20918;51.138;17.370;2022-08-24T11:46:28;18.32;;;13.22;;
34695;SDS011;20918;51.138;17.370;2022-08-24T11:57:10;16.25;;;14.33;;
34695;SDS011;20918;51.138;17.370;2022-08-24T12:00:22;17.70;;;14.40;;
34695;SDS011;20918;51.138;17.370;2022-08-24T12:03:55;18.70;;;14.33;;
34695;SDS011;20918;51.138;17.370;2022-08-24T12:18:08;19.60;;;13.28;;
34695;SDS011;20918;51.138;17.370;2022-08-24T12:21:36;16.50;;;13.53;;
34695;SDS011;20918;51.138;17.370;2022-08-24T12:28:02;19.75;;;14.45;;
34695;SDS011;20918;51.138;17.370;2022-08-24T12:31:11;17.80;;;12.58;;
34695;SDS011;20918;51.138;17.370;2022-08-24T12:37:41;17.70;;;12.58;;
34695;SDS011;20918;51.138;17.370;2022-08-24T12:40:55;18.23;;;12.68;;
34695;SDS011;20918;51.138;17.370;2022-08-24T12:44:12;17.75;;;12.50;;
34695;SDS011;20918;51.138;17.370;2022-08-24T12:47:23;18.32;;;12.10;;
34695;SDS011;20918;51.138;17.370;2022-08-24T13:01:14;21.80;;;12.35;;
34695;SDS011;20918;51.138;17.370;2022-08-24T13:08:07;22.05;;;11.70;;
34695;SDS011;20918;51.138;17.370;2022-08-24T13:14:37;17.55;;;12.18;;
34695;SDS011;20918;51.138;17.370;2022-08-24T13:17:39;19.12;;;12.23;;
34695;SDS011;20918;51.138;17.370;2022-08-24T13:34:40;19.77;;;12.10;;
34695;SDS011;20918;51.138;17.370;2022-08-24T13:38:08;14.75;;;11.70;;
34695;SDS011;20918;51.138;17.370;2022-08-24T13:48:46;19.98;;;11.48;;
34695;SDS011;20918;51.138;17.370;2022-08-24T13:55:47;16.77;;;10.05;;
34695;SDS011;20918;51.138;17.370;2022-08-24T14:03:11;18.23;;;10.70;;
34695;SDS011;20918;51.138;17.370;2022-08-24T14:21:00;17.55;;;9.08;;
34695;SDS011;20918;51.138;17.370;2022-08-24T14:24:30;19.05;;;8.40;;
34695;SDS011;20918;51.138;17.370;2022-08-24T14:27:50;18.50;;;8.78;;
34695;SDS011;20918;51.138;17.370;2022-08-24T14:41:05;14.95;;;8.50;;
34695;SDS011;20918;51.138;17.370;2022-08-24T14:48:10;17.27;;;8.48;;
34695;SDS011;20918;51.138;17.370;2022-08-24T14:58:57;19.17;;;8.75;;
34695;SDS011;20918;51.138;17.370;2022-08-24T15:30:40;16.52;;;11.83;;
34695;SDS011;20918;51.138;17.370;2022-08-24T15:33:51;23.62;;;11.45;;
34695;SDS011;20918;51.138;17.370;2022-08-24T15:37:01;16.30;;;11.97;;
34695;SDS011;20918;51.138;17.370;2022-08-24T15:50:46;17.23;;;11.03;;
34695;SDS011;20918;51.138;17.370;2022-08-24T15:53:48;20.72;;;10.25;;
34695;SDS011;20918;51.138;17.370;2022-08-24T16:04:04;18.42;;;10.50;;
34695;SDS011;20918;51.138;17.370;2022-08-24T16:07:15;18.55;;;11.55;;
34695;SDS011;20918;51.138;17.370;2022-08-24T16:10:14;17.42;;;12.00;;
34695;SDS011;20918;51.138;17.370;2022-08-24T16:13:37;18.73;;;10.55;;
34695;SDS011;20918;51.138;17.370;2022-08-24T16:16:50;18.40;;;11.30;;
34695;SDS011;20918;51.138;17.370;2022-08-24T16:19:53;17.67;;;10.55;;
34695;SDS011;20918;51.138;17.370;2022-08-24T16:23:05;20.77;;;11.15;;
34695;SDS011;20918;51.138;17.370;2022-08-24T16:30:19;13.65;;;10.58;;
34695;SDS011;20918;51.138;17.370;2022-08-24T16:37:00;16.10;;;10.78;;
34695;SDS011;20918;51.138;17.370;2022-08-24T16:40:13;20.30;;;11.00;;
34695;SDS011;20918;51.138;17.370;2022-08-24T16:43:32;21.02;;;11.97;;
34695;SDS011;20918;51.138;17.370;2022-08-24T16:46:37;22.85;;;12.40;;
34695;SDS011;20918;51.138;17.370;2022-08-24T16:49:43;15.10;;;11.18;;
34695;SDS011;20918;51.138;17.370;2022-08-24T16:52:45;18.30;;;12.13;;
34695;SDS011;20918;51.138;17.370;2022-08-24T16:55:49;17.90;;;11.90;;
34695;SDS011;20918;51.138;17.370;2022-08-24T16:58:51;15.83;;;11.35;;
34695;SDS011;20918;51.138;17.370;2022-08-24T17:01:57;22.62;;;11.73;;
34695;SDS011;20918;51.138;17.370;2022-08-24T17:05:12;22.03;;;12.33;;
34695;SDS011;20918;51.138;17.370;2022-08-24T17:08:19;24.70;;;11.70;;
34695;SDS011;20918;51.138;17.370;2022-08-24T17:11:37;21.90;;;12.23;;
34695;SDS011;20918;51.138;17.370;2022-08-24T17:14:39;18.77;;;12.33;;
34695;SDS011;20918;51.138;17.370;2022-08-24T17:17:41;18.50;;;11.70;;
34695;SDS011;20918;51.138;17.370;2022-08-24T17:20:50;14.60;;;11.25;;
34695;SDS011;20918;51.138;17.370;2022-08-24T17:23:54;18.12;;;12.23;;
34695;SDS011;20918;51.138;17.370;2022-08-24T17:27:02;17.02;;;11.45;;
34695;SDS011;20918;51.138;17.370;2022-08-24T17:30:06;18.10;;;11.78;;
34695;SDS011;20918;51.138;17.370;2022-08-24T17:33:19;18.10;;;12.82;;
34695;SDS011;20918;51.138;17.370;2022-08-24T17:36:26;17.52;;;13.10;;
34695;SDS011;20918;51.138;17.370;2022-08-24T17:39:27;21.52;;;14.10;;
34695;SDS011;20918;51.138;17.370;2022-08-24T17:42:32;27.17;;;18.75;;
34695;SDS011;20918;51.138;17.370;2022-08-24T17:45:35;32.35;;;19.32;;
34695;SDS011;20918;51.138;17.370;2022-08-24T17:48:37;29.67;;;19.60;;
34695;SDS011;20918;51.138;17.370;2022-08-24T17:54:50;28.15;;;16.67;;
34695;SDS011;20918;51.138;17.370;2022-08-24T17:57:53;21.02;;;16.07;;
34695;SDS011;20918;51.138;17.370;2022-08-24T18:00:57;24.30;;;15.58;;
34695;SDS011;20918;51.138;17.370;2022-08-24T18:03:58;20.82;;;15.88;;
34695;SDS011;20918;51.138;17.370;2022-08-24T18:07:00;22.75;;;15.40;;
34695;SDS011;20918;51.138;17.370;2022-08-24T18:10:06;20.72;;;14.95;;
34695;SDS011;20918;51.138;17.370;2022-08-24T18:13:10;26.33;;;15.13;;
34695;SDS011;20918;51.138;17.370;2022-08-24T18:16:18;21.17;;;14.85;;
34695;SDS011;20918;51.138;17.370;2022-08-24T18:19:37;20.85;;;14.98;;
34695;SDS011;20918;51.138;17.370;2022-08-24T18:22:40;19.00;;;14.10;;
34695;SDS011;20918;51.138;17.370;2022-08-24T18:25:48;19.15;;;14.87;;
34695;SDS011;20918;51.138;17.370;2022-08-24T18:28:51;25.30;;;15.88;;
34695;SDS011;20918;51.138;17.370;2022-08-24T18:31:59;21.90;;;16.07;;
34695;SDS011;20918;51.138;17.370;2022-08-24T18:34:58;21.60;;;16.07;;
34695;SDS011;20918;51.138;17.370;2022-08-24T18:37:59;24.55;;;15.43;;
34695;SDS011;20918;51.138;17.370;2022-08-24T18:41:01;21.15;;;14.40;;
34695;SDS011;20918;51.138;17.370;2022-08-24T18:44:05;23.73;;;15.93;;
34695;SDS011;20918;51.138;17.370;2022-08-24T18:47:15;27.50;;;17.20;;
34695;SDS011;20918;51.138;17.370;2022-08-24T18:50:17;22.15;;;14.33;;
34695;SDS011;20918;51.138;17.370;2022-08-24T18:53:24;19.02;;;15.45;;
34695;SDS011;20918;51.138;17.370;2022-08-24T18:56:53;23.02;;;16.75;;
34695;SDS011;20918;51.138;17.370;2022-08-24T19:00:06;29.02;;;17.92;;
34695;SDS011;20918;51.138;17.370;2022-08-24T19:03:05;27.07;;;18.45;;
34695;SDS011;20918;51.138;17.370;2022-08-24T19:06:12;24.65;;;18.27;;
34695;SDS011;20918;51.138;17.370;2022-08-24T19:09:13;26.48;;;17.90;;
34695;SDS011;20918;51.138;17.370;2022-08-24T19:12:15;28.65;;;18.52;;
34695;SDS011;20918;51.138;17.370;2022-08-24T19:15:18;25.72;;;18.37;;
34695;SDS011;20918;51.138;17.370;2022-08-24T19:18:20;19.48;;;16.37;;
34695;SDS011;20918;51.138;17.370;2022-08-24T19:21:23;24.37;;;16.20;;
34695;SDS011;20918;51.138;17.370;2022-08-24T19:24:30;25.97;;;17.00;;
34695;SDS011;20918;51.138;17.370;2022-08-24T19:27:32;20.80;;;16.12;;
34695;SDS011;20918;51.138;17.370;2022-08-24T19:30:41;23.25;;;17.48;;
34695;SDS011;20918;51.138;17.370;2022-08-24T19:33:46;22.77;;;16.75;;
34695;SDS011;20918;51.138;17.370;2022-08-24T19:36:49;25.80;;;17.30;;
34695;SDS011;20918;51.138;17.370;2022-08-24T19:39:51;22.90;;;17.23;;
34695;SDS011;20918;51.138;17.370;2022-08-24T19:42:52;21.57;;;15.50;;
34695;SDS011;20918;51.138;17.370;2022-08-24T19:45:55;20.85;;;16.75;;
34695;SDS011;20918;51.138;17.370;2022-08-24T19:49:11;24.15;;;18.17;;
34695;SDS011;20918;51.138;17.370;2022-08-24T19:52:12;20.12;;;17.10;;
34695;SDS011;20918;51.138;17.370;2022-08-24T19:55:15;26.55;;;19.55;;
34695;SDS011;20918;51.138;17.370;2022-08-24T20:01:51;22.85;;;18.15;;
34695;SDS011;20918;51.138;17.370;2022-08-24T20:04:52;28.95;;;16.97;;
34695;SDS011;20918;51.138;17.370;2022-08-24T20:07:54;22.40;;;14.63;;
34695;SDS011;20918;51.138;17.370;2022-08-24T20:11:04;24.35;;;19.50;;
34695;SDS011;20918;51.138;17.370;2022-08-24T20:14:12;27.22;;;18.00;;
34695;SDS011;20918;51.138;17.370;2022-08-24T20:17:23;21.12;;;17.35;;
34695;SDS011;20918;51.138;17.370;2022-08-24T20:20:24;21.62;;;17.77;;
34695;SDS011;20918;51.138;17.370;2022-08-24T20:23:34;22.60;;;16.48;;
34695;SDS011;20918;51.138;17.370;2022-08-24T20:26:37;26.62;;;19.40;;
34695;SDS011;20918;51.138;17.370;2022-08-24T20:29:45;20.55;;;16.87;;
34695;SDS011;20918;51.138;17.370;2022-08-24T20:32:47;24.20;;;19.30;;
34695;SDS011;20918;51.138;17.370;2022-08-24T20:36:02;19.20;;;15.58;;
34695;SDS011;20918;51.138;17.370;2022-08-24T20:39:06;20.10;;;15.00;;
34695;SDS011;20918;51.138;17.370;2022-08-24T20:42:10;21.65;;;18.30;;
34695;SDS011;20918;51.138;17.370;2022-08-24T20:45:12;24.63;;;15.45;;
34695;SDS011;20918;51.138;17.370;2022-08-24T20:48:14;21.27;;;17.10;;
34695;SDS011;20918;51.138;17.370;2022-08-24T20:51:20;25.40;;;18.27;;
34695;SDS011;20918;51.138;17.370;2022-08-24T20:54:21;23.92;;;18.20;;
34695;SDS011;20918;51.138;17.370;2022-08-24T20:57:22;25.02;;;16.80;;
34695;SDS011;20918;51.138;17.370;2022-08-24T21:00:23;38.30;;;18.05;;
34695;SDS011;20918;51.138;17.370;2022-08-24T21:03:24;24.85;;;19.07;;
34695;SDS011;20918;51.138;17.370;2022-08-24T21:06:25;22.82;;;15.72;;
34695;SDS011;20918;51.138;17.370;2022-08-24T21:09:27;24.85;;;17.92;;
34695;SDS011;20918;51.138;17.370;2022-08-24T21:12:32;28.70;;;19.40;;
34695;SDS011;20918;51.138;17.370;2022-08-24T21:15:31;24.87;;;22.13;;
34695;SDS011;20918;51.138;17.370;2022-08-24T21:18:49;30.52;;;21.23;;
34695;SDS011;20918;51.138;17.370;2022-08-24T21:21:47;22.87;;;19.55;;
34695;SDS011;20918;51.138;17.370;2022-08-24T21:24:52;36.48;;;24.20;;
34695;SDS011;20918;51.138;17.370;2022-08-24T21:27:59;29.20;;;24.27;;
34695;SDS011;20918;51.138;17.370;2022-08-24T21:31:01;26.77;;;20.60;;
34695;SDS011;20918;51.138;17.370;2022-08-24T21:34:16;28.10;;;19.45;;
34695;SDS011;20918;51.138;17.370;2022-08-24T21:37:39;24.72;;;17.80;;
34695;SDS011;20918;51.138;17.370;2022-08-24T21:40:41;28.85;;;22.48;;
34695;SDS011;20918;51.138;17.370;2022-08-24T21:43:44;23.60;;;19.35;;
34695;SDS011;20918;51.138;17.370;2022-08-24T21:46:46;26.02;;;17.35;;
34695;SDS011;20918;51.138;17.370;2022-08-24T21:49:49;24.95;;;19.85;;
34695;SDS011;20918;51.138;17.370;2022-08-24T21:52:53;23.75;;;19.80;;
34695;SDS011;20918;51.138;17.370;2022-08-24T21:55:53;23.07;;;18.42;;
34695;SDS011;20918;51.138;17.370;2022-08-24T21:59:01;27.00;;;20.75;;
34695;SDS011;20918;51.138;17.370;2022-08-24T22:02:03;29.40;;;17.52;;
34695;SDS011;20918;51.138;17.370;2022-08-24T22:05:14;29.25;;;21.35;;
34695;SDS011;20918;51.138;17.370;2022-08-24T22:08:26;30.90;;;22.05;;
34695;SDS011;20918;51.138;17.370;2022-08-24T22:11:29;28.42;;;20.95;;
34695;SDS011;20918;51.138;17.370;2022-08-24T22:14:31;49.08;;;21.25;;
34695;SDS011;20918;51.138;17.370;2022-08-24T22:17:33;26.93;;;20.35;;
34695;SDS011;20918;51.138;17.370;2022-08-24T22:20:37;38.17;;;20.15;;
34695;SDS011;20918;51.138;17.370;2022-08-24T22:23:42;26.40;;;19.35;;
34695;SDS011;20918;51.138;17.370;2022-08-24T22:26:44;30.57;;;24.07;;
34695;SDS011;20918;51.138;17.370;2022-08-24T22:29:45;28.57;;;22.77;;
34695;SDS011;20918;51.138;17.370;2022-08-24T22:32:47;27.02;;;19.23;;